createdAt,value
2023-04-19T00:02:35.830Z,5.15
2023-04-19T00:05:38.843Z,4.57
2023-04-19T00:08:42.569Z,4.13
2023-04-19T00:11:45.773Z,6.32
2023-04-19T00:14:48.608Z,4.28
2023-04-19T00:17:51.444Z,4.50
2023-04-19T00:20:54.266Z,4.85
2023-04-19T00:23:57.171Z,4.53
2023-04-19T00:27:00.017Z,5.25
2023-04-19T00:30:02.819Z,3.63
2023-04-19T00:33:13.084Z,4.43
2023-04-19T00:36:16.095Z,4.57
2023-04-19T00:39:18.989Z,5.47
2023-04-19T00:42:21.747Z,3.83
2023-04-19T00:45:25.899Z,5.00
2023-04-19T00:48:31.008Z,7.03
2023-04-19T00:51:34.667Z,2.85
2023-04-19T00:54:37.959Z,5.63
2023-04-19T00:57:41.236Z,5.55
2023-04-19T01:00:45.499Z,4.95
2023-04-19T01:03:48.681Z,4.53
2023-04-19T01:06:51.547Z,8.48
2023-04-19T01:09:54.530Z,5.63
2023-04-19T01:12:57.835Z,5.13
2023-04-19T01:16:01.316Z,5.63
2023-04-19T01:19:04.262Z,3.53
2023-04-19T01:22:07.571Z,4.82
2023-04-19T01:25:12.591Z,6.67
2023-04-19T01:28:18.376Z,8.70
2023-04-19T01:31:21.415Z,5.82
2023-04-19T01:34:24.415Z,5.07
2023-04-19T01:37:27.283Z,8.60
2023-04-19T01:40:30.048Z,4.23
2023-04-19T01:43:33.754Z,4.63
2023-04-19T01:46:38.985Z,4.00
2023-04-19T01:49:43.209Z,7.45
2023-04-19T01:52:46.001Z,4.90
2023-04-19T01:55:48.756Z,5.17
2023-04-19T01:58:51.594Z,4.28
2023-04-19T02:01:54.424Z,6.55
2023-04-19T02:04:58.138Z,6.65
2023-04-19T02:08:02.017Z,3.65
2023-04-19T02:11:08.926Z,7.00
2023-04-19T02:14:11.907Z,5.20
2023-04-19T02:17:14.729Z,5.03
2023-04-19T02:20:17.611Z,8.27
2023-04-19T02:23:20.395Z,5.30
2023-04-19T02:26:24.684Z,4.00
2023-04-19T02:29:28.036Z,5.32
2023-04-19T02:32:30.985Z,6.35
2023-04-19T02:35:34.183Z,5.18
2023-04-19T02:38:37.248Z,4.93
2023-04-19T02:41:39.958Z,5.37
2023-04-19T02:44:42.721Z,3.92
2023-04-19T02:47:46.885Z,4.93
2023-04-19T02:50:49.870Z,3.83
2023-04-19T02:53:53.533Z,4.93
2023-04-19T02:56:57.750Z,7.97
2023-04-19T03:00:00.764Z,3.35
2023-04-19T03:03:07.644Z,6.63
2023-04-19T03:06:10.697Z,4.50
2023-04-19T03:09:13.809Z,5.35
2023-04-19T03:12:17.015Z,6.63
2023-04-19T03:15:27.721Z,7.90
2023-04-19T03:18:30.928Z,8.60
2023-04-19T03:21:34.378Z,9.00
2023-04-19T03:24:38.227Z,7.30
2023-04-19T03:28:01.437Z,8.77
2023-04-19T03:31:24.177Z,7.88
2023-04-19T03:34:29.339Z,6.82
2023-04-19T03:37:32.104Z,8.55
2023-04-19T03:40:38.638Z,8.48
2023-04-19T03:43:42.667Z,6.17
2023-04-19T03:46:46.878Z,7.15
2023-04-19T03:49:51.864Z,7.15
2023-04-19T03:52:54.995Z,5.28
2023-04-19T03:55:57.741Z,5.10
2023-04-19T03:59:01.215Z,4.90
2023-04-19T04:02:07.141Z,6.57
2023-04-19T04:05:10.162Z,6.75
2023-04-19T04:08:14.231Z,6.38
2023-04-19T04:11:17.305Z,8.15
2023-04-19T04:14:27.245Z,7.63
2023-04-19T04:17:30.195Z,6.20
2023-04-19T04:20:33.271Z,5.90
2023-04-19T04:23:42.167Z,9.15
2023-04-19T04:26:51.659Z,8.68
2023-04-19T04:30:05.182Z,6.53
2023-04-19T04:33:08.761Z,7.60
2023-04-19T04:36:12.140Z,5.47
2023-04-19T04:39:16.717Z,8.63
2023-04-19T04:42:21.743Z,7.65
2023-04-19T04:45:24.516Z,9.53
2023-04-19T04:48:27.372Z,6.63
2023-04-19T04:51:30.137Z,6.82
2023-04-19T04:54:33.959Z,8.63
2023-04-19T04:57:37.368Z,7.95
2023-04-19T05:00:41.702Z,7.70
2023-04-19T05:03:46.230Z,8.57
2023-04-19T05:06:53.988Z,7.20
2023-04-19T05:10:01.072Z,8.30
2023-04-19T05:13:10.620Z,7.97
2023-04-19T05:16:14.599Z,11.23
2023-04-19T05:19:20.796Z,9.90
2023-04-19T05:22:29.941Z,9.60
2023-04-19T05:25:33.982Z,9.57
2023-04-19T05:28:37.359Z,9.65
2023-04-19T05:31:49.161Z,8.47
2023-04-19T05:34:59.618Z,6.78
2023-04-19T05:38:02.995Z,9.00
2023-04-19T05:41:06.073Z,11.10
2023-04-19T05:44:08.914Z,10.30
2023-04-19T05:47:12.424Z,7.47
2023-04-19T05:50:48.063Z,8.57
2023-04-19T05:54:05.487Z,11.02
2023-04-19T05:57:08.576Z,7.28
2023-04-19T06:00:11.880Z,8.45
2023-04-19T06:03:27.833Z,9.73
2023-04-19T06:06:34.460Z,6.85
2023-04-19T06:09:37.222Z,7.72
2023-04-19T06:12:40.082Z,6.95
2023-04-19T06:15:43.168Z,8.20
2023-04-19T06:18:46.108Z,7.30
2023-04-19T06:21:49.528Z,8.40
2023-04-19T06:24:52.422Z,8.60
2023-04-19T06:27:55.182Z,9.38
2023-04-19T06:30:58.977Z,7.85
2023-04-19T06:34:02.242Z,7.33
2023-04-19T06:37:05.276Z,8.10
2023-04-19T06:40:08.793Z,8.85
2023-04-19T06:43:11.615Z,6.32
2023-04-19T06:46:14.621Z,7.80
2023-04-19T06:49:17.402Z,8.00
2023-04-19T06:52:20.655Z,10.32
2023-04-19T06:55:23.536Z,7.72
2023-04-19T06:58:27.318Z,6.20
2023-04-19T07:01:30.108Z,7.55
2023-04-19T07:04:33.098Z,8.23
2023-04-19T07:07:38.277Z,7.97
2023-04-19T07:10:43.278Z,6.28
2023-04-19T07:13:46.307Z,6.93
2023-04-19T07:16:50.870Z,8.60
2023-04-19T07:19:54.382Z,7.83
2023-04-19T07:22:58.963Z,6.68
2023-04-19T07:26:02.061Z,8.48
2023-04-19T07:29:05.036Z,7.95
2023-04-19T07:32:07.953Z,9.32
2023-04-19T07:35:10.827Z,7.57
2023-04-19T07:38:13.635Z,7.43
2023-04-19T07:41:17.331Z,6.88
2023-04-19T07:44:25.612Z,6.18
2023-04-19T07:47:28.495Z,6.55
2023-04-19T07:50:31.469Z,5.73
2023-04-19T07:53:34.357Z,7.55
2023-04-19T07:56:37.200Z,6.95
2023-04-19T07:59:40.160Z,5.28
2023-04-19T08:02:47.161Z,8.43
2023-04-19T08:05:50.113Z,6.50
2023-04-19T08:08:53.092Z,5.38
2023-04-19T08:11:57.828Z,8.02
2023-04-19T08:15:09.878Z,7.18
2023-04-19T08:18:23.128Z,7.38
2023-04-19T08:21:34.656Z,6.13
2023-04-19T08:24:44.475Z,7.45
2023-04-19T08:27:47.274Z,6.10
2023-04-19T08:30:50.500Z,6.45
2023-04-19T08:33:53.478Z,6.30
2023-04-19T08:37:03.891Z,7.23
2023-04-19T08:40:08.694Z,7.80
2023-04-19T08:43:11.487Z,7.28
2023-04-19T08:46:14.556Z,6.95
2023-04-19T08:49:20.324Z,6.60
2023-04-19T08:52:25.207Z,6.47
2023-04-19T08:55:30.251Z,5.80
2023-04-19T09:01:40.025Z,5.65
2023-04-19T09:04:43.693Z,7.18
2023-04-19T09:07:47.206Z,6.07
2023-04-19T09:10:55.111Z,9.32
2023-04-19T09:14:11.057Z,5.95
2023-04-19T09:17:16.847Z,6.78
2023-04-19T09:20:44.951Z,5.72
2023-04-19T09:23:48.620Z,6.30
2023-04-19T09:26:55.716Z,6.18
2023-04-19T09:30:02.982Z,5.07
2023-04-19T09:33:11.373Z,5.07
2023-04-19T09:36:30.875Z,5.72
2023-04-19T09:39:34.005Z,5.33
2023-04-19T09:45:52.687Z,5.65
2023-04-19T09:48:57.639Z,5.95
2023-04-19T09:52:01.598Z,5.63
2023-04-19T09:55:17.842Z,4.93
2023-04-19T09:58:29.371Z,6.60
2023-04-19T10:01:45.891Z,7.05
2023-04-19T10:05:03.335Z,4.78
2023-04-19T10:08:13.721Z,5.53
2023-04-19T10:11:17.603Z,6.03
2023-04-19T10:14:24.828Z,5.28
2023-04-19T10:17:27.974Z,5.90
2023-04-19T10:20:37.817Z,4.78
2023-04-19T10:23:40.903Z,4.90
2023-04-19T10:27:07.866Z,4.60
2023-04-19T10:30:24.181Z,5.97
2023-04-19T10:33:28.301Z,3.83
2023-04-19T10:36:31.214Z,5.53
2023-04-19T10:39:43.083Z,3.40
2023-04-19T10:43:10.569Z,4.33
2023-04-19T10:46:37.236Z,6.88
2023-04-19T10:49:51.202Z,4.07
2023-04-19T10:52:54.035Z,4.93
2023-04-19T10:55:57.139Z,5.18
2023-04-19T10:59:00.533Z,4.20
2023-04-19T11:02:25.279Z,4.45
2023-04-19T11:05:28.174Z,3.05
2023-04-19T11:08:31.231Z,4.50
2023-04-19T11:11:37.567Z,4.32
2023-04-19T11:14:42.924Z,4.90
2023-04-19T11:18:08.906Z,5.93
2023-04-19T11:21:15.160Z,4.85
2023-04-19T11:24:19.152Z,6.10
2023-04-19T11:27:22.084Z,4.10
2023-04-19T11:30:31.365Z,5.70
2023-04-19T11:33:34.882Z,6.82
2023-04-19T11:36:47.978Z,4.70
2023-04-19T11:39:50.949Z,4.43
2023-04-19T11:43:00.620Z,6.88
2023-04-19T11:46:10.754Z,5.87
2023-04-19T11:49:27.424Z,3.85
2023-04-19T11:52:30.248Z,5.80
2023-04-19T11:55:33.637Z,5.15
2023-04-19T11:58:44.659Z,6.40
2023-04-19T12:01:47.986Z,6.30
2023-04-19T12:04:52.195Z,5.03
2023-04-19T12:08:06.830Z,6.55
2023-04-19T12:11:09.910Z,7.43
2023-04-19T12:14:15.252Z,5.05
2023-04-19T12:17:18.360Z,5.43
2023-04-19T12:20:35.560Z,5.55
2023-04-19T12:23:38.304Z,4.82
2023-04-19T12:26:57.517Z,4.97
2023-04-19T12:30:00.658Z,5.60
2023-04-19T12:33:03.767Z,4.67
2023-04-19T12:36:06.806Z,5.07
2023-04-19T12:39:09.968Z,4.57
2023-04-19T12:42:13.417Z,4.10
2023-04-19T12:45:16.559Z,6.30
2023-04-19T12:48:19.421Z,6.63
2023-04-19T12:51:22.181Z,3.50
2023-04-19T12:54:25.104Z,3.35
2023-04-19T12:57:28.342Z,5.80
2023-04-19T13:00:31.128Z,5.03
2023-04-19T13:03:36.697Z,5.23
2023-04-19T13:06:40.324Z,5.95
2023-04-19T13:09:43.134Z,6.35
2023-04-19T13:12:45.830Z,5.35
2023-04-19T13:15:48.649Z,6.22
2023-04-19T13:18:52.780Z,6.47
2023-04-19T13:21:55.830Z,6.82
2023-04-19T13:24:58.759Z,8.05
2023-04-19T13:28:01.541Z,5.85
2023-04-19T13:31:05.795Z,5.47
2023-04-19T13:34:08.563Z,5.47
2023-04-19T13:37:11.533Z,5.43
2023-04-19T13:40:19.445Z,5.03
2023-04-19T13:43:22.852Z,5.55
2023-04-19T13:46:25.736Z,4.38
2023-04-19T13:49:28.655Z,7.53
2023-04-19T13:52:31.417Z,25.13
2023-04-19T13:55:34.340Z,13.95
2023-04-19T13:58:37.678Z,7.85
2023-04-19T14:01:41.317Z,8.93
2023-04-19T14:04:44.134Z,5.03
2023-04-19T14:07:47.143Z,7.93
2023-04-19T14:10:50.934Z,7.85
2023-04-19T14:13:54.336Z,4.95
2023-04-19T14:16:57.033Z,6.10
2023-04-19T14:19:59.735Z,9.27
2023-04-19T14:23:02.553Z,7.95
2023-04-19T14:26:05.462Z,8.55
2023-04-19T14:29:08.448Z,9.05
2023-04-19T14:32:25.177Z,11.10
2023-04-19T14:35:29.178Z,10.83
2023-04-19T14:38:32.717Z,12.35
2023-04-19T14:41:36.023Z,30.63
2023-04-19T14:44:38.689Z,16.63
2023-04-19T14:47:41.525Z,12.98
2023-04-19T14:50:44.368Z,11.00
2023-04-19T14:53:47.431Z,10.68
2023-04-19T14:56:50.393Z,10.70
2023-04-19T15:00:01.325Z,10.77
2023-04-19T15:03:04.966Z,6.43
2023-04-19T15:06:08.296Z,6.93
2023-04-19T15:09:11.899Z,7.28
2023-04-19T15:12:15.074Z,8.70
2023-04-19T15:15:17.863Z,9.23
2023-04-19T15:18:20.995Z,7.50
2023-04-19T15:21:25.716Z,7.97
2023-04-19T15:24:28.568Z,8.45
2023-04-19T15:27:31.683Z,6.20
2023-04-19T15:30:34.545Z,7.93
2023-04-19T15:33:37.901Z,8.60
2023-04-19T15:36:41.127Z,5.83
2023-04-19T15:39:44.103Z,7.50
2023-04-19T15:42:46.877Z,6.07
2023-04-19T15:45:49.706Z,7.57
2023-04-19T15:48:52.540Z,7.40
2023-04-19T15:51:55.817Z,6.17
2023-04-19T15:54:58.573Z,6.63
2023-04-19T15:58:01.437Z,8.57
2023-04-19T16:01:04.219Z,8.38
2023-04-19T16:04:07.390Z,8.55
2023-04-19T16:07:10.333Z,6.40
2023-04-19T16:10:13.759Z,8.05
2023-04-19T16:13:17.095Z,8.63
2023-04-19T16:16:19.851Z,7.45
2023-04-19T16:19:23.489Z,7.72
2023-04-19T16:22:26.444Z,10.80
2023-04-19T16:25:32.713Z,6.97
2023-04-19T16:28:35.995Z,6.60
2023-04-19T16:31:38.783Z,6.13
2023-04-19T16:34:41.703Z,10.00
2023-04-19T16:37:44.551Z,10.87
2023-04-19T16:40:48.758Z,9.02
2023-04-19T16:43:51.727Z,10.60
2023-04-19T16:46:54.627Z,12.95
2023-04-19T16:49:58.501Z,13.23
2023-04-19T16:53:01.427Z,12.50
2023-04-19T16:56:04.686Z,12.38
2023-04-19T16:59:07.557Z,11.68
2023-04-19T17:02:11.171Z,13.15
2023-04-19T17:05:16.203Z,13.10
2023-04-19T17:08:19.034Z,14.93
2023-04-19T17:11:21.769Z,15.95
2023-04-19T17:14:24.496Z,11.63
2023-04-19T17:17:27.516Z,14.90
2023-04-19T17:20:30.318Z,13.02
2023-04-19T17:23:33.163Z,14.13
2023-04-19T17:26:36.007Z,22.33
2023-04-19T17:29:38.772Z,21.13
2023-04-19T17:32:42.107Z,19.65
2023-04-19T17:35:45.050Z,24.48
2023-04-19T17:38:48.305Z,21.10
2023-04-19T17:41:51.496Z,19.55
2023-04-19T17:44:54.527Z,16.77
2023-04-19T17:47:57.422Z,18.77
2023-04-19T17:51:00.603Z,19.95
2023-04-19T17:54:03.906Z,20.90
2023-04-19T17:57:07.050Z,20.80
2023-04-19T18:00:15.902Z,19.75
2023-04-19T18:03:19.211Z,20.42
2023-04-19T18:06:23.088Z,19.00
2023-04-19T18:09:27.541Z,18.63
2023-04-19T18:12:30.680Z,19.23
2023-04-19T18:15:33.441Z,24.50
2023-04-19T18:18:36.805Z,21.48
2023-04-19T18:21:39.869Z,22.50
2023-04-19T18:24:45.288Z,19.97
2023-04-19T18:27:49.388Z,32.13
2023-04-19T18:30:52.734Z,30.48
2023-04-19T18:33:55.882Z,24.00
2023-04-19T18:37:00.932Z,23.70
2023-04-19T18:40:07.561Z,22.00
2023-04-19T18:43:11.128Z,15.73
2023-04-19T18:46:15.884Z,18.05
2023-04-19T18:49:18.993Z,21.90
2023-04-19T18:52:21.850Z,21.42
2023-04-19T18:55:26.663Z,25.23
2023-04-19T18:58:29.730Z,28.27
2023-04-19T19:01:33.764Z,23.98
2023-04-19T19:04:51.213Z,26.45
2023-04-19T19:08:04.321Z,20.95
2023-04-19T19:11:32.987Z,22.07
2023-04-19T19:14:35.695Z,23.77
2023-04-19T19:17:38.941Z,21.25
2023-04-19T19:20:42.182Z,22.05
2023-04-19T19:23:45.547Z,19.63
2023-04-19T19:26:49.002Z,22.93
2023-04-19T19:29:52.257Z,23.90
2023-04-19T19:32:55.509Z,23.48
2023-04-19T19:35:59.275Z,19.95
2023-04-19T19:39:02.597Z,23.88
2023-04-19T19:42:06.798Z,23.70
2023-04-19T19:45:10.550Z,23.60
2023-04-19T19:48:13.626Z,20.83
2023-04-19T19:51:42.223Z,20.02
2023-04-19T19:54:39.425Z,23.73
2023-04-19T20:03:56.402Z,25.27
2023-04-19T20:10:10.598Z,26.23
2023-04-19T20:13:13.509Z,24.40
2023-04-19T20:16:18.837Z,27.25
2023-04-19T20:19:21.945Z,27.50
2023-04-19T20:22:25.014Z,28.15
2023-04-19T20:25:27.852Z,27.63
2023-04-19T20:28:31.010Z,23.00
2023-04-19T20:31:34.035Z,22.05
2023-04-19T20:34:37.877Z,29.70
2023-04-19T20:37:40.897Z,28.15
2023-04-19T20:40:44.249Z,28.67
2023-04-19T20:43:47.885Z,24.43
2023-04-19T20:46:52.265Z,23.02
2023-04-19T20:49:55.615Z,21.25
2023-04-19T20:52:58.553Z,22.65
2023-04-19T20:56:02.939Z,18.17
2023-04-19T20:59:05.932Z,17.00
2023-04-19T21:02:09.020Z,21.90
2023-04-19T21:05:12.069Z,21.75
2023-04-19T21:08:16.234Z,17.00
2023-04-19T21:11:19.124Z,16.75
2023-04-19T21:14:21.879Z,17.30
2023-04-19T21:17:24.840Z,16.95
2023-04-19T21:20:27.741Z,18.48
2023-04-19T21:23:30.483Z,15.02
2023-04-19T21:26:33.399Z,15.00
2023-04-19T21:29:36.109Z,14.40
2023-04-19T21:32:38.997Z,15.35
2023-04-19T21:35:41.716Z,15.48
2023-04-19T21:38:44.644Z,14.18
2023-04-19T21:41:47.617Z,16.38
2023-04-19T21:44:50.333Z,15.83
2023-04-19T21:47:53.102Z,16.90
2023-04-19T21:50:55.882Z,12.88
2023-04-19T21:53:59.050Z,14.77
2023-04-19T21:57:02.154Z,14.23
2023-04-19T22:00:06.899Z,15.03
2023-04-19T22:03:09.809Z,15.85
2023-04-19T22:06:14.029Z,12.85
2023-04-19T22:09:16.875Z,19.52
2023-04-19T22:12:19.865Z,13.25
2023-04-19T22:15:23.388Z,12.30
2023-04-19T22:18:26.188Z,10.65
2023-04-19T22:21:29.023Z,11.23
2023-04-19T22:24:31.704Z,10.75
2023-04-19T22:27:34.460Z,9.23
2023-04-19T22:30:37.232Z,9.63
2023-04-19T22:33:39.942Z,11.05
2023-04-19T22:36:42.757Z,8.93
2023-04-19T22:39:45.767Z,11.02
2023-04-19T22:42:48.976Z,11.80
2023-04-19T22:45:51.770Z,12.10
2023-04-19T22:48:56.210Z,9.40
2023-04-19T22:51:59.885Z,10.77
2023-04-19T22:55:02.740Z,11.00
2023-04-19T22:58:05.741Z,10.40
2023-04-19T23:01:08.471Z,11.40
2023-04-19T23:04:14.328Z,10.35
2023-04-19T23:07:20.070Z,10.73
2023-04-19T23:10:24.135Z,12.38
2023-04-19T23:13:26.952Z,11.20
2023-04-19T23:16:29.967Z,14.70
2023-04-19T23:19:32.698Z,9.48
2023-04-19T23:22:35.810Z,12.73
2023-04-19T23:25:38.831Z,10.52
2023-04-19T23:28:41.636Z,10.23
2023-04-19T23:31:44.385Z,11.93
2023-04-19T23:34:47.255Z,11.82
2023-04-19T23:37:50.067Z,10.32
2023-04-19T23:40:52.914Z,9.30
2023-04-19T23:43:56.151Z,12.68
2023-04-19T23:46:59.283Z,10.60
2023-04-19T23:50:02.136Z,9.93
2023-04-19T23:53:05.702Z,12.13
2023-04-19T23:56:08.795Z,12.32
2023-04-19T23:59:11.586Z,9.73
